Time;durP1;ratioP1;P1;durP2;ratioP2;P2;SDS_P1;SDS_P2;PMS_P1;PMS_P2;Temp;Humidity;BMP_temperature;BMP_pressure;BME280_temperature;BME280_humidity;BME280_pressure;Samples;Min_cycle;Max_cycle;Signal;HPM_P1;HPM_P2
2021/04/08 00:02:22;;;;;;;6.90;5.05;;;2.10;99.90;;;;;;4790894;29;20254;-81
2021/04/08 00:04:48;;;;;;;5.95;5.45;;;2.00;99.90;;;;;;4792079;30;20233;-82
2021/04/08 00:07:15;;;;;;;5.55;4.20;;;1.90;99.90;;;;;;4791976;30;20590;-82
2021/04/08 00:09:41;;;;;;;8.25;6.40;;;1.90;99.90;;;;;;4792235;30;20226;-82
2021/04/08 00:12:08;;;;;;;8.25;5.35;;;1.80;99.90;;;;;;4791725;30;20221;-82
2021/04/08 00:14:35;;;;;;;6.22;5.28;;;1.80;99.90;;;;;;4791710;30;20221;-82
2021/04/08 00:17:01;;;;;;;7.70;7.05;;;1.80;99.90;;;;;;4791811;30;20217;-81
2021/04/08 00:19:27;;;;;;;6.05;5.05;;;1.70;99.90;;;;;;4791974;30;20224;-82
2021/04/08 00:21:53;;;;;;;5.20;4.40;;;1.80;99.90;;;;;;4792426;30;20221;-82
2021/04/08 00:24:21;;;;;;;6.53;5.97;;;1.70;99.90;;;;;;4793922;30;20593;-82
2021/04/08 00:26:47;;;;;;;9.98;5.20;;;1.70;99.90;;;;;;4793598;30;20216;-82
2021/04/08 00:29:13;;;;;;;6.53;5.38;;;1.80;99.90;;;;;;4793768;30;20249;-82
2021/04/08 00:31:39;;;;;;;6.53;5.93;;;1.90;99.90;;;;;;4792600;30;20277;-81
2021/04/08 00:34:05;;;;;;;5.57;5.18;;;2.00;99.90;;;;;;4792508;30;20306;-81
2021/04/08 00:36:32;;;;;;;6.18;5.57;;;2.10;99.90;;;;;;4792666;30;20227;-82
2021/04/08 00:38:58;;;;;;;6.13;5.63;;;2.10;99.90;;;;;;4792457;30;20239;-81
2021/04/08 00:41:25;;;;;;;6.60;6.00;;;2.10;99.90;;;;;;4791695;30;20216;-81
2021/04/08 00:43:51;;;;;;;9.30;6.75;;;2.00;99.90;;;;;;4792819;30;20651;-81
2021/04/08 00:46:18;;;;;;;7.25;5.90;;;2.00;99.90;;;;;;4792896;30;20220;-81
2021/04/08 00:48:44;;;;;;;8.25;7.20;;;2.10;99.90;;;;;;4792641;30;20242;-82
2021/04/08 00:51:10;;;;;;;7.70;5.40;;;2.10;99.90;;;;;;4793198;30;20639;-81
2021/04/08 00:53:36;;;;;;;9.18;6.65;;;2.20;99.90;;;;;;4791982;30;20234;-82
2021/04/08 00:56:03;;;;;;;8.27;5.95;;;2.10;99.90;;;;;;4793220;30;20223;-81
2021/04/08 00:58:33;;;;;;;7.90;5.60;;;2.10;99.90;;;;;;4792917;30;20757;-81
2021/04/08 01:00:59;;;;;;;6.38;5.90;;;2.10;99.90;;;;;;4793665;30;20241;-81
2021/04/08 01:03:25;;;;;;;7.40;6.60;;;2.10;99.90;;;;;;4792722;30;20232;-82
2021/04/08 01:05:52;;;;;;;6.95;6.30;;;2.10;99.90;;;;;;4793222;30;20675;-81
2021/04/08 01:08:18;;;;;;;7.90;7.10;;;2.10;99.90;;;;;;4793258;30;20239;-82
2021/04/08 01:10:45;;;;;;;8.73;6.60;;;2.10;99.90;;;;;;4793548;30;20691;-81
2021/04/08 01:13:20;;;;;;;10.25;7.18;;;2.20;99.90;;;;;;4793598;29;20225;-82
2021/04/08 01:15:48;;;;;;;8.82;7.65;;;2.20;99.90;;;;;;4793487;30;20227;-81
2021/04/08 01:18:27;;;;;;;7.70;6.70;;;2.20;99.90;;;;;;4793290;30;20247;-80
2021/04/08 01:21:04;;;;;;;8.15;6.20;;;2.20;99.90;;;;;;4792668;30;20674;-82
2021/04/08 01:24:09;;;;;;;7.57;6.88;;;2.30;99.90;;;;;;4793559;30;20251;-81
2021/04/08 01:27:11;;;;;;;6.97;6.28;;;2.30;99.90;;;;;;4794098;30;20215;-82
2021/04/08 01:30:00;;;;;;;10.07;7.22;;;2.30;99.90;;;;;;4759220;30;20637;-82
2021/04/08 01:32:31;;;;;;;9.50;6.40;;;2.30;99.90;;;;;;4794262;30;20221;-81
2021/04/08 01:35:00;;;;;;;7.53;6.28;;;2.30;99.90;;;;;;4793427;30;20684;-81
2021/04/08 01:37:30;;;;;;;9.43;6.15;;;2.40;99.90;;;;;;4793307;30;20235;-81
2021/04/08 01:39:57;;;;;;;8.25;7.45;;;2.40;99.90;;;;;;4793179;30;20229;-82
2021/04/08 01:42:25;;;;;;;18.55;7.22;;;2.40;99.90;;;;;;4793043;30;20333;-82
2021/04/08 01:44:53;;;;;;;7.90;7.20;;;2.40;99.90;;;;;;4793341;30;20247;-81
2021/04/08 01:47:19;;;;;;;9.30;7.90;;;2.30;99.90;;;;;;4794316;30;20240;-81
2021/04/08 01:49:48;;;;;;;7.60;6.78;;;2.40;99.90;;;;;;4792730;30;20218;-82
2021/04/08 01:52:16;;;;;;;7.38;6.63;;;2.40;99.90;;;;;;4791925;30;20714;-81
2021/04/08 01:54:46;;;;;;;7.10;6.20;;;2.30;99.90;;;;;;4792198;30;20705;-81
2021/04/08 01:57:14;;;;;;;5.85;5.20;;;2.30;99.90;;;;;;4792478;30;20220;-81
2021/04/08 01:59:43;;;;;;;5.78;5.30;;;2.30;99.90;;;;;;4792714;30;20672;-81
2021/04/08 02:02:09;;;;;;;5.75;5.25;;;2.40;99.90;;;;;;4791801;30;20222;-80
2021/04/08 02:04:38;;;;;;;5.85;5.35;;;2.40;99.90;;;;;;4791773;30;20233;-81
2021/04/08 02:07:06;;;;;;;7.50;5.80;;;2.40;99.90;;;;;;4791506;30;20213;-82
2021/04/08 02:09:33;;;;;;;6.00;5.40;;;2.30;99.90;;;;;;4791799;30;20219;-81
2021/04/08 02:12:00;;;;;;;4.95;4.47;;;2.20;99.90;;;;;;4791006;30;20216;-81
2021/04/08 02:14:28;;;;;;;6.00;4.95;;;2.20;99.90;;;;;;4790847;30;20222;-81
2021/04/08 02:16:56;;;;;;;8.55;5.65;;;2.10;99.90;;;;;;4798517;30;20592;-80
2021/04/08 02:19:24;;;;;;;4.40;4.10;;;2.00;99.90;;;;;;4804058;30;20215;-79
2021/04/08 02:21:51;;;;;;;2.83;2.70;;;2.10;99.90;;;;;;4803409;30;20219;-80
2021/04/08 02:24:20;;;;;;;4.45;4.07;;;2.00;99.90;;;;;;4802490;30;20300;-81
2021/04/08 02:26:48;;;;;;;5.43;3.55;;;1.90;99.90;;;;;;4790116;30;20213;-82
2021/04/08 02:29:17;;;;;;;5.07;4.30;;;1.90;99.90;;;;;;4791108;30;20300;-81
2021/04/08 02:31:46;;;;;;;3.80;3.10;;;1.90;99.90;;;;;;4789793;30;20215;-81
2021/04/08 02:34:13;;;;;;;3.55;3.22;;;1.90;99.90;;;;;;4789828;30;20618;-81
2021/04/08 02:36:40;;;;;;;4.18;3.78;;;1.80;99.90;;;;;;4793487;30;20217;-81
2021/04/08 02:39:07;;;;;;;4.88;4.00;;;1.90;99.90;;;;;;4790032;30;20239;-81
2021/04/08 02:41:39;;;;;;;5.25;3.72;;;1.90;99.90;;;;;;4790316;30;20218;-81
2021/04/08 02:44:05;;;;;;;5.82;4.03;;;1.90;99.90;;;;;;4790237;30;20660;-81
2021/04/08 02:46:32;;;;;;;3.22;2.92;;;1.90;99.90;;;;;;4790576;30;20228;-82
2021/04/08 02:48:59;;;;;;;3.75;3.45;;;2.00;99.90;;;;;;4790058;30;20247;-81
2021/04/08 02:51:30;;;;;;;3.50;3.20;;;1.90;99.90;;;;;;4789844;30;20286;-81
2021/04/08 02:54:00;;;;;;;4.50;3.40;;;2.00;99.90;;;;;;4790348;30;20589;-81
2021/04/08 02:56:31;;;;;;;4.40;3.28;;;2.00;99.90;;;;;;4790847;30;20211;-81
2021/04/08 02:59:03;;;;;;;3.97;3.53;;;2.10;99.90;;;;;;4790320;30;20244;-81
2021/04/08 03:01:31;;;;;;;4.13;3.40;;;2.10;99.90;;;;;;4790487;30;20224;-81
2021/04/08 03:03:59;;;;;;;4.88;2.80;;;2.00;99.90;;;;;;4790639;30;20652;-82
2021/04/08 03:06:27;;;;;;;4.85;3.85;;;2.10;99.90;;;;;;4790429;30;20220;-81
2021/04/08 03:08:55;;;;;;;3.97;2.90;;;2.10;99.90;;;;;;4790361;30;20237;-81
2021/04/08 03:11:26;;;;;;;3.33;3.00;;;2.10;99.90;;;;;;4790735;30;20583;-81
2021/04/08 03:13:55;;;;;;;4.68;3.45;;;2.10;99.90;;;;;;4790264;30;20212;-82
2021/04/08 03:16:25;;;;;;;3.47;3.17;;;2.10;99.90;;;;;;4790614;30;20212;-81
2021/04/08 03:18:56;;;;;;;11.98;3.80;;;2.10;99.90;;;;;;4789878;30;20593;-81
2021/04/08 03:21:24;;;;;;;4.32;3.92;;;2.10;99.90;;;;;;4790470;30;20220;-81
2021/04/08 03:23:52;;;;;;;5.80;3.60;;;2.20;99.90;;;;;;4792596;30;20251;-80
2021/04/08 03:26:18;;;;;;;4.68;4.05;;;2.10;99.90;;;;;;4792873;30;20220;-81
2021/04/08 03:28:45;;;;;;;3.42;3.15;;;2.10;99.90;;;;;;4790394;30;20242;-81
2021/04/08 03:31:13;;;;;;;3.95;3.05;;;2.10;99.90;;;;;;4789913;30;20227;-81
2021/04/08 03:33:42;;;;;;;4.28;3.00;;;2.20;99.90;;;;;;4789286;30;20217;-81
2021/04/08 03:36:09;;;;;;;3.65;3.35;;;2.20;99.90;;;;;;4789661;30;20683;-81
2021/04/08 03:38:36;;;;;;;3.53;3.13;;;2.20;99.90;;;;;;4792688;29;20236;-81
2021/04/08 03:41:03;;;;;;;6.28;3.70;;;2.20;99.90;;;;;;4793734;30;20224;-82
2021/04/08 03:43:30;;;;;;;3.92;3.63;;;2.10;99.90;;;;;;4793170;30;20332;-81
2021/04/08 03:45:59;;;;;;;4.07;3.78;;;2.10;99.90;;;;;;4793300;30;20242;-81
2021/04/08 03:48:27;;;;;;;5.72;3.58;;;2.00;99.90;;;;;;4793167;30;20239;-82
2021/04/08 03:50:54;;;;;;;4.85;3.10;;;2.00;99.90;;;;;;4793525;30;20223;-80
2021/04/08 03:53:21;;;;;;;3.75;3.35;;;2.10;99.90;;;;;;4793121;30;20229;-82
2021/04/08 03:55:47;;;;;;;3.42;3.05;;;2.10;99.90;;;;;;4792311;30;20224;-82
2021/04/08 03:58:16;;;;;;;4.82;3.95;;;2.10;99.90;;;;;;4793383;30;20249;-81
2021/04/08 04:00:44;;;;;;;3.63;3.42;;;2.20;99.90;;;;;;4793350;30;20220;-82
2021/04/08 04:03:11;;;;;;;3.92;2.42;;;2.20;99.90;;;;;;4792717;30;20227;-82
2021/04/08 04:05:38;;;;;;;5.70;3.05;;;2.20;99.90;;;;;;4793064;30;20224;-80
2021/04/08 04:08:06;;;;;;;2.83;2.63;;;2.10;99.90;;;;;;4793591;30;20267;-81
2021/04/08 04:10:35;;;;;;;3.97;3.67;;;2.00;99.90;;;;;;4792903;30;20212;-82
2021/04/08 04:13:03;;;;;;;3.58;3.28;;;2.00;99.90;;;;;;4793974;30;20213;-81
2021/04/08 04:15:29;;;;;;;4.13;3.50;;;2.00;99.90;;;;;;4793301;30;20218;-82
2021/04/08 04:17:56;;;;;;;5.45;3.63;;;2.00;99.90;;;;;;4792631;30;20231;-81
2021/04/08 04:20:22;;;;;;;4.50;2.88;;;2.00;99.90;;;;;;4793081;30;20215;-81
2021/04/08 04:22:49;;;;;;;3.70;3.40;;;1.90;99.90;;;;;;4792731;30;20215;-82
2021/04/08 04:25:18;;;;;;;4.00;3.67;;;1.90;99.90;;;;;;4792776;30;20321;-81
2021/04/08 04:27:45;;;;;;;3.35;2.97;;;1.80;99.90;;;;;;4792405;30;20265;-81
2021/04/08 04:30:12;;;;;;;4.80;4.03;;;1.90;99.90;;;;;;4794195;30;20271;-81
2021/04/08 04:32:38;;;;;;;3.50;2.90;;;1.90;99.90;;;;;;4795131;30;20228;-81
2021/04/08 04:35:06;;;;;;;4.18;3.78;;;1.90;99.90;;;;;;4796103;30;20292;-81
2021/04/08 04:37:32;;;;;;;3.80;3.40;;;2.00;99.90;;;;;;4795374;30;20237;-81
2021/04/08 04:39:59;;;;;;;4.10;2.95;;;2.00;99.90;;;;;;4795629;30;20215;-81
2021/04/08 04:42:26;;;;;;;3.47;3.05;;;2.10;99.90;;;;;;4795634;30;20219;-81
2021/04/08 04:44:52;;;;;;;5.10;3.42;;;2.20;99.90;;;;;;4794808;30;20234;-81
2021/04/08 04:47:18;;;;;;;3.40;2.88;;;2.20;99.90;;;;;;4795538;30;20269;-81
2021/04/08 04:49:48;;;;;;;3.05;2.75;;;2.20;99.90;;;;;;4793962;29;20243;-81
2021/04/08 04:52:14;;;;;;;3.33;3.13;;;2.20;99.90;;;;;;4794570;30;20289;-81
2021/04/08 04:54:40;;;;;;;4.35;3.35;;;2.30;99.90;;;;;;4795466;30;20272;-81
2021/04/08 04:57:07;;;;;;;4.55;3.60;;;2.30;99.90;;;;;;4795234;30;20640;-81
2021/04/08 04:59:34;;;;;;;5.20;3.95;;;2.30;99.90;;;;;;4795112;30;20589;-81
2021/04/08 05:02:01;;;;;;;5.82;3.20;;;2.20;99.90;;;;;;4796002;30;20222;-81
2021/04/08 05:04:28;;;;;;;4.45;3.72;;;2.20;99.90;;;;;;4795442;30;20240;-81
2021/04/08 05:06:55;;;;;;;4.00;3.60;;;2.20;99.90;;;;;;4795424;30;20217;-81
2021/04/08 05:09:21;;;;;;;5.03;3.63;;;2.20;99.90;;;;;;4794933;30;20667;-81
2021/04/08 05:11:47;;;;;;;6.78;3.50;;;2.30;99.90;;;;;;4794524;30;20600;-81
2021/04/08 05:14:13;;;;;;;4.75;3.67;;;2.30;99.90;;;;;;4795065;30;20224;-81
2021/04/08 05:16:40;;;;;;;3.45;3.15;;;2.30;99.90;;;;;;4794666;30;20221;-82
2021/04/08 05:19:07;;;;;;;4.00;3.70;;;2.20;99.90;;;;;;4795398;30;20237;-82
2021/04/08 05:21:33;;;;;;;3.55;3.30;;;2.30;99.90;;;;;;4794852;30;20219;-81
2021/04/08 05:23:59;;;;;;;5.90;3.13;;;2.30;99.90;;;;;;4795004;30;20233;-81
2021/04/08 05:26:25;;;;;;;3.63;3.33;;;2.40;99.90;;;;;;4794168;30;20630;-81
2021/04/08 05:28:52;;;;;;;4.05;3.15;;;2.40;99.90;;;;;;4794362;30;20582;-82
2021/04/08 05:31:18;;;;;;;3.38;3.05;;;2.40;99.90;;;;;;4795317;30;20261;-81
2021/04/08 05:33:45;;;;;;;8.02;3.67;;;2.30;99.90;;;;;;4794864;30;20589;-81
2021/04/08 05:36:11;;;;;;;3.92;3.22;;;2.30;99.90;;;;;;4794817;30;20221;-81
2021/04/08 05:38:37;;;;;;;4.13;3.38;;;2.30;99.90;;;;;;4793793;30;20245;-81
2021/04/08 05:41:04;;;;;;;3.95;2.90;;;2.30;99.90;;;;;;4794430;30;20213;-82
2021/04/08 05:43:30;;;;;;;3.90;2.92;;;2.30;99.90;;;;;;4793984;30;20231;-82
2021/04/08 05:45:56;;;;;;;2.65;2.45;;;2.30;99.90;;;;;;4794422;30;20238;-82
2021/04/08 05:48:22;;;;;;;4.18;3.25;;;2.30;99.90;;;;;;4794140;30;20237;-82
2021/04/08 05:50:49;;;;;;;3.03;2.80;;;2.30;99.90;;;;;;4794538;30;20218;-82
2021/04/08 05:53:16;;;;;;;3.35;3.05;;;2.40;99.90;;;;;;4794095;30;20230;-82
2021/04/08 05:55:42;;;;;;;3.03;2.75;;;2.50;99.90;;;;;;4793927;30;20225;-82
2021/04/08 05:58:08;;;;;;;3.50;3.20;;;2.50;99.90;;;;;;4794038;30;20244;-82
2021/04/08 06:00:34;;;;;;;8.75;3.63;;;2.50;99.90;;;;;;4793922;29;20222;-82
2021/04/08 06:03:01;;;;;;;4.57;2.95;;;2.50;99.90;;;;;;4794018;30;20215;-82
2021/04/08 06:05:27;;;;;;;3.25;2.50;;;2.60;99.90;;;;;;4793416;30;20234;-82
2021/04/08 06:07:54;;;;;;;3.22;2.92;;;2.70;99.90;;;;;;4794235;30;20238;-82
2021/04/08 06:10:20;;;;;;;8.07;3.42;;;2.80;99.90;;;;;;4793836;30;20701;-82
2021/04/08 06:12:47;;;;;;;4.78;3.60;;;2.80;99.90;;;;;;4793729;30;20232;-82
2021/04/08 06:15:18;;;;;;;2.90;2.70;;;2.80;99.90;;;;;;4795359;30;20220;-81
2021/04/08 06:17:47;;;;;;;5.15;3.97;;;2.80;99.90;;;;;;4796252;30;20765;-82
2021/04/08 06:20:14;;;;;;;4.95;4.18;;;2.80;99.90;;;;;;4793803;30;20560;-82
2021/04/08 06:22:40;;;;;;;5.15;3.65;;;2.70;99.90;;;;;;4794114;30;20298;-82
2021/04/08 06:25:09;;;;;;;4.57;4.15;;;2.70;99.90;;;;;;4794087;30;20235;-82
2021/04/08 06:27:35;;;;;;;4.95;4.55;;;2.70;99.90;;;;;;4793775;30;20287;-82
2021/04/08 06:30:01;;;;;;;5.72;3.80;;;2.70;99.90;;;;;;4794534;30;20258;-81
2021/04/08 06:32:28;;;;;;;7.88;5.35;;;2.70;99.90;;;;;;4793724;30;20223;-81
2021/04/08 06:34:54;;;;;;;5.45;4.10;;;2.70;99.90;;;;;;4794049;30;20213;-82
2021/04/08 06:37:20;;;;;;;6.28;4.20;;;2.70;99.90;;;;;;4793864;30;20229;-82
2021/04/08 06:39:48;;;;;;;5.72;4.60;;;2.80;99.90;;;;;;4795261;30;20636;-82
2021/04/08 06:42:19;;;;;;;4.22;3.83;;;2.70;99.90;;;;;;4793601;30;20207;-82
2021/04/08 06:44:49;;;;;;;4.93;4.50;;;2.70;99.90;;;;;;4793915;30;20246;-82
2021/04/08 06:47:21;;;;;;;5.50;3.40;;;2.70;99.90;;;;;;4793896;30;20206;-82
2021/04/08 06:49:50;;;;;;;4.68;4.28;;;2.70;99.90;;;;;;4793856;30;20252;-82
2021/04/08 06:52:18;;;;;;;6.40;5.75;;;2.80;99.90;;;;;;4793031;30;20235;-82
2021/04/08 06:54:45;;;;;;;4.60;4.07;;;2.90;99.90;;;;;;4794818;30;20590;-82
2021/04/08 06:57:13;;;;;;;5.15;4.65;;;3.00;99.90;;;;;;4794995;30;20215;-82
2021/04/08 06:59:40;;;;;;;7.55;5.80;;;3.00;99.90;;;;;;4794434;30;20580;-82
2021/04/08 07:02:14;;;;;;;6.15;5.18;;;3.00;99.90;;;;;;4793939;30;20219;-82
2021/04/08 07:04:40;;;;;;;6.82;5.13;;;3.10;99.90;;;;;;4793749;30;20244;-81
2021/04/08 07:07:07;;;;;;;6.13;5.53;;;3.20;99.90;;;;;;4795405;30;20222;-82
2021/04/08 07:09:33;;;;;;;8.80;6.43;;;3.30;99.90;;;;;;4796650;30;20215;-82
2021/04/08 07:12:00;;;;;;;7.88;6.10;;;3.40;99.90;;;;;;4794921;29;20758;-81
2021/04/08 07:14:27;;;;;;;13.00;6.88;;;3.50;99.90;;;;;;4797476;30;20275;-82
2021/04/08 07:16:54;;;;;;;6.00;5.50;;;3.40;99.90;;;;;;4797068;30;20221;-82
2021/04/08 07:19:20;;;;;;;8.02;6.30;;;3.40;99.90;;;;;;4796702;30;20243;-82
2021/04/08 07:21:47;;;;;;;8.25;6.07;;;3.30;99.90;;;;;;4796842;30;20225;-82
2021/04/08 07:24:15;;;;;;;6.50;5.88;;;3.30;99.90;;;;;;4796324;30;20244;-82
2021/04/08 07:26:57;;;;;;;6.25;4.13;;;3.30;99.90;;;;;;4797304;30;20223;-81
2021/04/08 07:29:44;;;;;;;5.95;4.90;;;3.30;99.90;;;;;;4795473;30;20227;-82
2021/04/08 07:32:13;;;;;;;6.68;4.72;;;3.50;99.90;;;;;;4796209;30;20221;-81
2021/04/08 07:34:43;;;;;;;4.95;4.55;;;3.70;99.90;;;;;;4796621;30;20215;-81
2021/04/08 07:37:09;;;;;;;3.88;3.67;;;3.80;99.90;;;;;;4797115;30;20214;-81
2021/04/08 07:39:37;;;;;;;3.40;3.13;;;4.00;99.90;;;;;;4798842;30;20219;-81
2021/04/08 07:42:06;;;;;;;4.03;3.45;;;4.20;99.90;;;;;;4805496;30;20219;-81
2021/04/08 07:44:47;;;;;;;6.38;3.55;;;4.40;99.90;;;;;;4806841;30;20265;-81
2021/04/08 07:47:18;;;;;;;4.35;4.05;;;4.20;99.90;;;;;;4810076;30;20229;-81
2021/04/08 07:49:45;;;;;;;11.55;4.28;;;4.00;99.50;;;;;;4797433;30;20231;-82
2021/04/08 07:52:23;;;;;;;5.03;4.53;;;3.80;99.40;;;;;;4796524;30;20231;-82
2021/04/08 07:54:57;;;;;;;4.85;4.45;;;3.70;99.90;;;;;;4797014;30;20226;-82
2021/04/08 07:57:23;;;;;;;4.85;4.35;;;3.90;99.90;;;;;;4796013;30;20656;-82
2021/04/08 07:59:50;;;;;;;3.67;3.38;;;3.90;99.90;;;;;;4796737;30;20219;-82
2021/04/08 08:02:23;;;;;;;7.13;3.55;;;4.10;99.10;;;;;;4796364;30;20305;-81
2021/04/08 08:04:49;;;;;;;4.85;4.43;;;4.10;98.90;;;;;;4796369;30;20249;-82
2021/04/08 08:07:27;;;;;;;4.57;4.25;;;4.10;98.70;;;;;;4796569;30;20219;-83
2021/04/08 08:09:54;;;;;;;5.00;4.35;;;4.20;98.90;;;;;;4799021;30;20191;-83
2021/04/08 08:12:20;;;;;;;6.97;4.93;;;4.20;99.90;;;;;;4796510;30;20219;-82
2021/04/08 08:14:47;;;;;;;5.13;4.60;;;4.30;99.00;;;;;;4797261;30;20217;-82
2021/04/08 08:17:15;;;;;;;5.05;4.00;;;4.40;99.30;;;;;;4796915;30;20218;-83
2021/04/08 08:19:43;;;;;;;4.82;4.40;;;4.60;99.40;;;;;;4796254;30;20263;-82
2021/04/08 08:22:18;;;;;;;9.10;4.68;;;4.80;98.00;;;;;;4796309;30;20767;-82
2021/04/08 08:24:52;;;;;;;7.85;5.40;;;4.90;97.80;;;;;;4795973;29;20238;-82
2021/04/08 08:27:18;;;;;;;4.50;4.20;;;4.90;97.90;;;;;;4795554;30;20241;-81
2021/04/08 08:29:55;;;;;;;7.38;5.55;;;4.90;97.30;;;;;;4803459;29;20207;-81
2021/04/08 08:32:22;;;;;;;6.00;4.75;;;4.70;97.20;;;;;;4812572;29;20217;-82
2021/04/08 08:34:52;;;;;;;5.97;5.05;;;4.70;97.60;;;;;;4813277;29;20238;-81
2021/04/08 08:37:20;;;;;;;6.55;4.70;;;4.90;97.80;;;;;;4812484;29;20305;-82
2021/04/08 08:39:48;;;;;;;6.75;6.15;;;4.90;96.30;;;;;;4812970;29;20206;-83
2021/04/08 08:42:16;;;;;;;5.45;4.95;;;4.90;97.40;;;;;;4812617;29;20566;-82
2021/04/08 08:44:43;;;;;;;6.57;4.65;;;5.10;97.50;;;;;;4798325;29;20225;-83
2021/04/08 08:47:14;;;;;;;5.07;4.40;;;5.20;97.60;;;;;;4812257;29;20206;-82
2021/04/08 08:49:44;;;;;;;6.63;4.88;;;5.20;96.10;;;;;;4812674;29;20222;-82
2021/04/08 08:52:16;;;;;;;4.72;4.28;;;5.10;95.50;;;;;;4813279;29;20210;-82
2021/04/08 08:54:45;;;;;;;6.40;4.85;;;5.00;95.00;;;;;;4820455;29;20480;-82
2021/04/08 08:57:12;;;;;;;5.55;5.05;;;4.80;95.90;;;;;;4829099;29;20206;-81
2021/04/08 08:59:39;;;;;;;4.53;4.15;;;4.70;95.60;;;;;;4829568;29;20201;-81
2021/04/08 09:02:11;;;;;;;4.03;3.63;;;4.60;95.80;;;;;;4827230;29;20207;-82
2021/04/08 09:04:38;;;;;;;4.70;4.28;;;4.50;96.80;;;;;;4828259;29;20240;-81
2021/04/08 09:07:06;;;;;;;5.18;4.65;;;4.50;96.70;;;;;;4829757;29;20222;-80
2021/04/08 09:09:37;;;;;;;4.43;4.03;;;4.60;95.40;;;;;;4830606;29;20213;-80
2021/04/08 09:12:08;;;;;;;4.03;3.65;;;4.80;96.30;;;;;;4830437;29;20183;-80
2021/04/08 09:14:36;;;;;;;7.20;4.15;;;4.90;97.10;;;;;;4830525;29;20214;-81
2021/04/08 09:17:02;;;;;;;4.35;3.88;;;5.10;97.10;;;;;;4830410;29;20199;-81
2021/04/08 09:19:30;;;;;;;4.10;3.80;;;5.10;96.60;;;;;;4819905;29;20210;-84
2021/04/08 09:21:59;;;;;;;3.38;3.00;;;5.30;95.10;;;;;;4814196;29;20216;-83
2021/04/08 09:24:36;;;;;;;3.85;3.55;;;5.60;96.10;;;;;;4813580;29;20237;-83
2021/04/08 09:27:03;;;;;;;3.72;3.42;;;5.80;95.40;;;;;;4813045;29;20218;-84
2021/04/08 09:29:56;;;;;;;6.70;3.75;;;5.80;94.60;;;;;;4812941;29;20218;-84
2021/04/08 09:32:30;;;;;;;5.50;4.13;;;6.10;95.80;;;;;;4812126;29;20757;-83
2021/04/08 09:35:12;;;;;;;4.28;3.83;;;6.10;93.50;;;;;;4811399;29;20266;-83
2021/04/08 09:38:25;;;;;;;4.20;3.88;;;6.20;92.00;;;;;;4813125;29;20239;-82
2021/04/08 09:41:00;;;;;;;6.88;3.40;;;6.10;94.80;;;;;;4812281;29;20278;-82
2021/04/08 09:43:27;;;;;;;4.10;2.80;;;5.80;93.60;;;;;;4812656;29;20214;-84
2021/04/08 09:45:58;;;;;;;3.97;2.75;;;5.60;92.90;;;;;;4812189;29;20270;-83
2021/04/08 09:48:27;;;;;;;4.80;4.15;;;5.60;92.60;;;;;;4813184;29;20238;-83
2021/04/08 09:50:55;;;;;;;6.53;3.92;;;5.60;93.80;;;;;;4813272;29;20305;-85
2021/04/08 09:53:23;;;;;;;3.50;3.20;;;5.60;94.70;;;;;;4813624;29;20611;-85
2021/04/08 09:55:52;;;;;;;5.40;3.35;;;5.70;95.40;;;;;;4814240;29;20222;-83
2021/04/08 09:58:25;;;;;;;4.15;3.22;;;5.80;94.50;;;;;;4813038;29;20238;-82
2021/04/08 10:00:53;;;;;;;5.13;2.95;;;6.00;94.50;;;;;;4810159;29;20203;-82
2021/04/08 10:03:31;;;;;;;5.20;3.10;;;6.00;94.10;;;;;;4813111;29;20753;-83
2021/04/08 10:05:58;;;;;;;2.97;2.78;;;5.80;93.30;;;;;;4812368;29;20266;-82
2021/04/08 10:08:26;;;;;;;3.58;3.28;;;5.90;93.90;;;;;;4812342;29;20242;-82
2021/04/08 10:10:53;;;;;;;4.68;4.03;;;6.00;92.90;;;;;;4813545;29;20218;-82
2021/04/08 10:13:45;;;;;;;3.60;3.15;;;6.20;93.90;;;;;;4815779;29;20215;-84
2021/04/08 10:16:13;;;;;;;4.68;4.15;;;6.20;95.50;;;;;;4815799;29;20222;-83
2021/04/08 10:18:40;;;;;;;3.50;3.20;;;5.90;93.80;;;;;;4818073;29;20230;-83
2021/04/08 10:21:10;;;;;;;5.35;4.13;;;5.60;94.20;;;;;;4816570;29;20225;-82
2021/04/08 10:23:39;;;;;;;4.93;3.30;;;5.50;94.30;;;;;;4818791;29;20206;-83
2021/04/08 10:35:55;;;;;;;4.45;4.05;;;5.80;95.40;;;;;;4697125;30;20229;-82
2021/04/08 10:38:27;;;;;;;3.58;3.20;;;5.60;94.80;;;;;;4764164;29;20328;-82
2021/04/08 10:41:02;;;;;;;4.85;4.32;;;5.70;94.80;;;;;;4819894;29;20214;-81
2021/04/08 10:43:36;;;;;;;5.65;4.30;;;5.70;95.10;;;;;;4820496;29;20218;-83
2021/04/08 10:46:04;;;;;;;3.53;3.22;;;5.50;93.80;;;;;;4817951;29;20231;-83
2021/04/08 10:48:30;;;;;;;3.80;3.45;;;5.50;95.10;;;;;;4821252;29;20245;-82
2021/04/08 10:51:12;;;;;;;5.43;3.40;;;5.70;94.60;;;;;;4824514;29;20596;-83
2021/04/08 10:53:39;;;;;;;3.63;3.22;;;5.70;94.90;;;;;;4822309;29;20221;-83
2021/04/08 10:56:46;;;;;;;4.10;3.55;;;5.90;94.90;;;;;;4816783;29;20272;-87
2021/04/08 11:02:38;;;;;;;5.28;4.82;;;6.80;96.20;;;;;;4816526;29;20186;-82
2021/04/08 11:08:29;;;;;;;4.38;3.92;;;7.30;92.70;;;;;;4756498;29;20281;-82
2021/04/08 11:10:58;;;;;;;4.53;3.47;;;7.90;94.60;;;;;;4821977;29;20285;-83
2021/04/08 11:13:42;;;;;;;2.92;2.72;;;7.80;93.50;;;;;;4823916;29;20215;-83
2021/04/08 11:16:08;;;;;;;3.75;3.42;;;7.70;92.60;;;;;;4821795;29;20309;-82
2021/04/08 11:18:50;;;;;;;4.30;3.90;;;7.30;91.20;;;;;;4820724;29;20242;-81
2021/04/08 11:21:27;;;;;;;3.90;3.60;;;7.20;92.30;;;;;;4820146;29;20262;-83
2021/04/08 11:27:43;;;;;;;;;;;;;;;;;;;;;
2021/04/08 11:30:34;;;;;;;3.67;3.35;;;6.90;93.20;;;;;;4692124;30;20302;-82
2021/04/08 11:33:04;;;;;;;3.83;3.15;;;6.80;92.70;;;;;;4810070;29;20222;-81
2021/04/08 12:09:03;;;;;;;;;;;;;;;;;;;;;
2021/04/08 12:31:44;;;;;;;3.10;2.65;;;7.60;94.80;;;;;;4695223;23;20248;-84
2021/04/08 12:34:47;;;;;;;3.35;3.05;;;7.50;93.20;;;;;;4750315;29;20226;-85
2021/04/08 12:37:34;;;;;;;2.40;2.20;;;7.10;92.50;;;;;;4770795;29;20224;-88
2021/04/08 12:40:00;;;;;;;4.05;3.65;;;7.30;93.40;;;;;;4794305;30;20211;-86
2021/04/08 12:42:28;;;;;;;5.32;2.88;;;7.70;94.20;;;;;;4799432;29;20230;-85
2021/04/08 12:45:12;;;;;;;9.10;3.33;;;8.50;98.50;;;;;;4848015;29;20237;-86
2021/04/08 12:50:07;;;;;;;3.40;3.08;;;9.00;89.10;;;;;;4797526;29;20474;-82
2021/04/08 12:52:34;;;;;;;4.57;3.30;;;8.70;90.70;;;;;;4796005;29;20328;-82
2021/04/08 12:55:01;;;;;;;2.88;2.42;;;8.40;90.50;;;;;;4797123;29;20518;-82
2021/04/08 12:57:27;;;;;;;4.57;4.25;;;8.10;91.80;;;;;;4799690;29;20265;-84
2021/04/08 12:59:55;;;;;;;3.83;3.42;;;8.50;88.90;;;;;;4796646;29;20212;-84
2021/04/08 13:02:21;;;;;;;3.10;2.83;;;8.30;90.80;;;;;;4795336;29;20221;-84
2021/04/08 13:04:58;;;;;;;3.03;2.80;;;8.10;90.00;;;;;;4795335;29;20238;-84
2021/04/08 13:11:02;;;;;;;3.05;2.75;;;7.60;91.40;;;;;;4795460;29;20199;-83
2021/04/08 13:20:10;;;;;;;;;;;;;;;;;;;;;
2021/04/08 13:23:35;;;;;;;;;;;;;;;;;;;;;
2021/04/08 13:26:03;;;;;;;3.33;3.00;;;7.30;92.10;;;;;;4805862;29;20320;-83
2021/04/08 13:28:29;;;;;;;3.20;2.90;;;7.30;90.90;;;;;;4849761;29;20277;-84
2021/04/08 13:31:45;;;;;;;3.20;3.00;;;7.50;92.10;;;;;;5044609;27;20526;-84
2021/04/08 13:34:12;;;;;;;3.03;2.70;;;7.60;92.80;;;;;;5033548;28;20213;-82
2021/04/08 13:36:47;;;;;;;3.90;3.00;;;8.10;94.60;;;;;;5034767;28;20209;-84
2021/04/08 13:39:33;;;;;;;3.90;3.38;;;8.70;95.20;;;;;;5034151;28;20227;-84
2021/04/08 13:42:05;;;;;;;3.95;3.65;;;9.30;92.80;;;;;;5032684;28;20253;-83
2021/04/08 13:44:33;;;;;;;3.20;2.63;;;10.10;84.10;;;;;;5032500;28;20225;-83
2021/04/08 13:47:00;;;;;;;3.43;2.80;;;11.30;85.00;;;;;;5033015;28;20464;-83
2021/04/08 13:49:26;;;;;;;3.57;3.27;;;12.50;90.60;;;;;;5032390;28;20488;-84
2021/04/08 13:58:57;;;;;;;2.70;2.50;;;13.40;66.60;;;;;;5137657;23;20962;-86
2021/04/08 14:02:01;;;;;;;3.20;2.90;;;13.10;61.00;;;;;;5076476;28;21196;-86
2021/04/08 14:04:53;;;;;;;3.00;2.80;;;12.50;59.20;;;;;;5061066;28;20565;-83
2021/04/08 14:07:40;;;;;;;;;;;;;;;;;;;;;
2021/04/08 18:11:14;;;;;;;5.03;4.53;;;11.20;54.90;;;;;;4806266;29;20569;-84
2021/04/08 18:14:28;;;;;;;4.23;3.80;;;10.80;56.10;;;;;;4944651;29;20464;-82
2021/04/08 18:16:56;;;;;;;6.27;3.57;;;10.40;56.80;;;;;;5037374;28;20457;-81
2021/04/08 18:19:26;;;;;;;4.32;3.78;;;10.00;57.50;;;;;;5092636;28;20473;-81
2021/04/08 18:21:58;;;;;;;5.88;5.28;;;9.80;59.10;;;;;;5088004;28;20266;-82
2021/04/08 18:24:32;;;;;;;7.97;5.30;;;9.50;60.10;;;;;;5085414;28;20221;-83
2021/04/08 18:27:36;;;;;;;5.55;4.90;;;9.30;61.40;;;;;;5084940;28;20454;-83
2021/04/08 18:30:07;;;;;;;5.65;5.10;;;9.00;63.60;;;;;;5066578;28;20228;-81
2021/04/08 18:32:36;;;;;;;6.60;5.10;;;8.80;64.20;;;;;;5086266;28;20629;-81
2021/04/08 18:35:15;;;;;;;;;;;;;;;;;;;;;
2021/04/08 18:37:43;;;;;;;5.55;5.05;;;8.40;65.50;;;;;;5085332;28;20328;-81
2021/04/08 18:40:12;;;;;;;4.93;4.47;;;8.20;66.40;;;;;;5085400;28;20205;-81
2021/04/08 18:42:38;;;;;;;5.63;4.35;;;8.10;67.80;;;;;;5084838;28;20217;-81
2021/04/08 18:45:07;;;;;;;5.32;4.72;;;7.90;68.70;;;;;;5084640;28;20209;-81
2021/04/08 18:47:33;;;;;;;4.60;4.00;;;7.70;69.50;;;;;;5084208;28;20281;-81
2021/04/08 18:50:00;;;;;;;11.30;6.35;;;7.60;70.50;;;;;;5082492;28;20225;-80
2021/04/08 18:52:28;;;;;;;7.53;6.13;;;7.50;71.70;;;;;;5083501;28;20201;-80
2021/04/08 18:54:54;;;;;;;4.40;4.00;;;7.30;73.40;;;;;;5082554;28;20212;-81